sensor_id;sensor_type;location;lat;lon;timestamp;P1;durP1;ratioP1;P2;durP2;ratioP2
2912;SDS011;1466;48.778;9.166;2024-03-06T00:00:46;15.07;;;6.37;;
2912;SDS011;1466;48.778;9.166;2024-03-06T00:03:12;21.10;;;7.20;;
2912;SDS011;1466;48.778;9.166;2024-03-06T00:05:37;16.33;;;6.10;;
2912;SDS011;1466;48.778;9.166;2024-03-06T00:08:03;12.80;;;5.87;;
2912;SDS011;1466;48.778;9.166;2024-03-06T00:10:29;17.60;;;6.00;;
2912;SDS011;1466;48.778;9.166;2024-03-06T00:12:55;10.77;;;5.70;;
2912;SDS011;1466;48.778;9.166;2024-03-06T00:15:21;14.63;;;6.10;;
2912;SDS011;1466;48.778;9.166;2024-03-06T00:17:46;11.17;;;5.80;;
2912;SDS011;1466;48.778;9.166;2024-03-06T00:20:12;14.30;;;5.97;;
2912;SDS011;1466;48.778;9.166;2024-03-06T00:22:39;12.35;;;5.82;;
2912;SDS011;1466;48.778;9.166;2024-03-06T00:25:04;14.47;;;6.23;;
2912;SDS011;1466;48.778;9.166;2024-03-06T00:27:30;10.25;;;5.40;;
2912;SDS011;1466;48.778;9.166;2024-03-06T00:29:56;24.73;;;7.50;;
2912;SDS011;1466;48.778;9.166;2024-03-06T00:32:22;17.67;;;6.68;;
2912;SDS011;1466;48.778;9.166;2024-03-06T00:34:48;12.23;;;5.70;;
2912;SDS011;1466;48.778;9.166;2024-03-06T00:37:14;16.20;;;6.30;;
2912;SDS011;1466;48.778;9.166;2024-03-06T00:39:39;16.13;;;6.30;;
2912;SDS011;1466;48.778;9.166;2024-03-06T00:42:05;13.57;;;6.07;;
2912;SDS011;1466;48.778;9.166;2024-03-06T00:44:33;9.30;;;5.50;;
2912;SDS011;1466;48.778;9.166;2024-03-06T00:46:59;22.13;;;6.80;;
2912;SDS011;1466;48.778;9.166;2024-03-06T00:49:25;13.27;;;6.03;;
2912;SDS011;1466;48.778;9.166;2024-03-06T00:51:51;18.73;;;6.53;;
2912;SDS011;1466;48.778;9.166;2024-03-06T00:54:16;15.53;;;6.20;;
2912;SDS011;1466;48.778;9.166;2024-03-06T00:56:42;17.40;;;5.93;;
2912;SDS011;1466;48.778;9.166;2024-03-06T00:59:07;21.00;;;5.97;;
2912;SDS011;1466;48.778;9.166;2024-03-06T01:01:33;10.67;;;5.53;;
2912;SDS011;1466;48.778;9.166;2024-03-06T01:03:58;11.70;;;5.70;;
2912;SDS011;1466;48.778;9.166;2024-03-06T01:06:24;11.77;;;5.73;;
2912;SDS011;1466;48.778;9.166;2024-03-06T01:08:50;16.47;;;6.20;;
2912;SDS011;1466;48.778;9.166;2024-03-06T01:11:16;12.97;;;5.67;;
2912;SDS011;1466;48.778;9.166;2024-03-06T01:13:41;17.80;;;6.33;;
2912;SDS011;1466;48.778;9.166;2024-03-06T01:16:07;15.30;;;6.00;;
2912;SDS011;1466;48.778;9.166;2024-03-06T01:18:32;10.33;;;5.80;;
2912;SDS011;1466;48.778;9.166;2024-03-06T01:20:59;14.13;;;5.85;;
2912;SDS011;1466;48.778;9.166;2024-03-06T01:23:24;12.50;;;5.67;;
2912;SDS011;1466;48.778;9.166;2024-03-06T01:25:50;12.60;;;5.67;;
2912;SDS011;1466;48.778;9.166;2024-03-06T01:28:15;9.50;;;5.07;;
2912;SDS011;1466;48.778;9.166;2024-03-06T01:30:41;12.70;;;5.47;;
2912;SDS011;1466;48.778;9.166;2024-03-06T01:33:06;10.63;;;5.10;;
2912;SDS011;1466;48.778;9.166;2024-03-06T01:35:32;11.00;;;5.77;;
2912;SDS011;1466;48.778;9.166;2024-03-06T01:37:58;11.87;;;5.63;;
2912;SDS011;1466;48.778;9.166;2024-03-06T01:40:23;16.40;;;5.50;;
2912;SDS011;1466;48.778;9.166;2024-03-06T01:42:49;14.63;;;5.97;;
2912;SDS011;1466;48.778;9.166;2024-03-06T01:45:14;11.60;;;5.47;;
2912;SDS011;1466;48.778;9.166;2024-03-06T01:47:40;17.70;;;6.60;;
2912;SDS011;1466;48.778;9.166;2024-03-06T01:50:06;32.57;;;8.53;;
2912;SDS011;1466;48.778;9.166;2024-03-06T01:52:35;13.40;;;5.72;;
2912;SDS011;1466;48.778;9.166;2024-03-06T01:55:03;14.52;;;6.20;;
2912;SDS011;1466;48.778;9.166;2024-03-06T01:57:30;15.27;;;5.90;;
2912;SDS011;1466;48.778;9.166;2024-03-06T01:59:57;12.25;;;5.72;;
2912;SDS011;1466;48.778;9.166;2024-03-06T02:02:25;15.27;;;6.10;;
2912;SDS011;1466;48.778;9.166;2024-03-06T02:04:52;14.33;;;6.17;;
2912;SDS011;1466;48.778;9.166;2024-03-06T02:07:22;10.68;;;5.90;;
2912;SDS011;1466;48.778;9.166;2024-03-06T02:09:49;13.27;;;6.22;;
2912;SDS011;1466;48.778;9.166;2024-03-06T02:12:14;9.63;;;5.70;;
2912;SDS011;1466;48.778;9.166;2024-03-06T02:14:41;13.73;;;6.10;;
2912;SDS011;1466;48.778;9.166;2024-03-06T02:17:06;14.43;;;6.40;;
2912;SDS011;1466;48.778;9.166;2024-03-06T02:19:41;23.33;;;7.73;;
2912;SDS011;1466;48.778;9.166;2024-03-06T02:22:11;15.88;;;6.07;;
2912;SDS011;1466;48.778;9.166;2024-03-06T02:24:36;17.30;;;6.75;;
2912;SDS011;1466;48.778;9.166;2024-03-06T02:27:03;14.25;;;6.20;;
2912;SDS011;1466;48.778;9.166;2024-03-06T02:29:32;15.90;;;7.65;;
2912;SDS011;1466;48.778;9.166;2024-03-06T02:32:00;24.73;;;8.88;;
2912;SDS011;1466;48.778;9.166;2024-03-06T02:34:29;15.70;;;6.88;;
2912;SDS011;1466;48.778;9.166;2024-03-06T02:36:55;22.40;;;8.60;;
2912;SDS011;1466;48.778;9.166;2024-03-06T02:39:21;16.63;;;7.07;;
2912;SDS011;1466;48.778;9.166;2024-03-06T02:41:47;16.07;;;7.47;;
2912;SDS011;1466;48.778;9.166;2024-03-06T02:44:13;21.45;;;9.32;;
2912;SDS011;1466;48.778;9.166;2024-03-06T02:46:39;17.93;;;8.97;;
2912;SDS011;1466;48.778;9.166;2024-03-06T02:49:05;19.77;;;10.13;;
2912;SDS011;1466;48.778;9.166;2024-03-06T02:51:31;19.10;;;9.87;;
2912;SDS011;1466;48.778;9.166;2024-03-06T02:53:56;17.90;;;10.00;;
2912;SDS011;1466;48.778;9.166;2024-03-06T02:56:22;22.80;;;11.10;;
2912;SDS011;1466;48.778;9.166;2024-03-06T02:58:48;20.00;;;9.73;;
2912;SDS011;1466;48.778;9.166;2024-03-06T03:01:14;22.73;;;9.57;;
2912;SDS011;1466;48.778;9.166;2024-03-06T03:03:42;25.40;;;9.70;;
2912;SDS011;1466;48.778;9.166;2024-03-06T03:06:09;24.90;;;8.38;;
2912;SDS011;1466;48.778;9.166;2024-03-06T03:08:36;17.48;;;7.60;;
2912;SDS011;1466;48.778;9.166;2024-03-06T03:11:02;18.52;;;7.53;;
2912;SDS011;1466;48.778;9.166;2024-03-06T03:13:28;15.00;;;8.23;;
2912;SDS011;1466;48.778;9.166;2024-03-06T03:15:53;16.53;;;7.67;;
2912;SDS011;1466;48.778;9.166;2024-03-06T03:18:19;15.17;;;7.10;;
2912;SDS011;1466;48.778;9.166;2024-03-06T03:20:44;15.80;;;7.83;;
2912;SDS011;1466;48.778;9.166;2024-03-06T03:23:10;21.63;;;7.60;;
2912;SDS011;1466;48.778;9.166;2024-03-06T03:25:39;14.80;;;6.60;;
2912;SDS011;1466;48.778;9.166;2024-03-06T03:28:05;31.73;;;9.50;;
2912;SDS011;1466;48.778;9.166;2024-03-06T03:30:31;19.58;;;7.35;;
2912;SDS011;1466;48.778;9.166;2024-03-06T03:32:57;22.90;;;7.22;;
2912;SDS011;1466;48.778;9.166;2024-03-06T03:35:22;12.90;;;6.63;;
2912;SDS011;1466;48.778;9.166;2024-03-06T03:37:52;18.08;;;7.18;;
2912;SDS011;1466;48.778;9.166;2024-03-06T03:40:18;15.48;;;6.90;;
2912;SDS011;1466;48.778;9.166;2024-03-06T03:42:44;9.50;;;5.70;;
2912;SDS011;1466;48.778;9.166;2024-03-06T03:45:10;13.67;;;6.20;;
2912;SDS011;1466;48.778;9.166;2024-03-06T03:47:35;13.93;;;7.00;;
2912;SDS011;1466;48.778;9.166;2024-03-06T03:50:02;14.07;;;6.68;;
2912;SDS011;1466;48.778;9.166;2024-03-06T03:52:28;17.97;;;7.30;;
2912;SDS011;1466;48.778;9.166;2024-03-06T03:54:54;18.83;;;7.47;;
2912;SDS011;1466;48.778;9.166;2024-03-06T03:57:20;13.70;;;7.00;;
2912;SDS011;1466;48.778;9.166;2024-03-06T03:59:46;12.63;;;6.47;;
2912;SDS011;1466;48.778;9.166;2024-03-06T04:02:11;17.47;;;6.83;;
2912;SDS011;1466;48.778;9.166;2024-03-06T04:04:37;15.10;;;7.00;;
2912;SDS011;1466;48.778;9.166;2024-03-06T04:07:02;18.83;;;7.27;;
2912;SDS011;1466;48.778;9.166;2024-03-06T04:09:28;13.90;;;7.20;;
2912;SDS011;1466;48.778;9.166;2024-03-06T04:11:54;13.77;;;7.07;;
2912;SDS011;1466;48.778;9.166;2024-03-06T04:14:19;16.23;;;7.07;;
2912;SDS011;1466;48.778;9.166;2024-03-06T04:16:45;12.13;;;7.22;;
2912;SDS011;1466;48.778;9.166;2024-03-06T04:19:11;11.13;;;6.53;;
2912;SDS011;1466;48.778;9.166;2024-03-06T04:21:41;15.33;;;7.20;;
2912;SDS011;1466;48.778;9.166;2024-03-06T04:24:07;27.33;;;9.10;;
2912;SDS011;1466;48.778;9.166;2024-03-06T04:26:33;20.80;;;8.00;;
2912;SDS011;1466;48.778;9.166;2024-03-06T04:28:58;15.00;;;7.40;;
2912;SDS011;1466;48.778;9.166;2024-03-06T04:31:24;13.10;;;7.10;;
2912;SDS011;1466;48.778;9.166;2024-03-06T04:33:50;14.40;;;7.43;;
2912;SDS011;1466;48.778;9.166;2024-03-06T04:36:15;13.07;;;7.30;;
2912;SDS011;1466;48.778;9.166;2024-03-06T04:38:41;14.30;;;7.87;;
2912;SDS011;1466;48.778;9.166;2024-03-06T04:41:07;17.60;;;7.80;;
2912;SDS011;1466;48.778;9.166;2024-03-06T04:43:33;17.10;;;7.80;;
2912;SDS011;1466;48.778;9.166;2024-03-06T04:45:59;18.60;;;8.25;;
2912;SDS011;1466;48.778;9.166;2024-03-06T04:48:25;21.70;;;8.97;;
2912;SDS011;1466;48.778;9.166;2024-03-06T04:50:51;14.83;;;8.03;;
2912;SDS011;1466;48.778;9.166;2024-03-06T04:53:16;14.40;;;7.47;;
2912;SDS011;1466;48.778;9.166;2024-03-06T04:55:42;15.90;;;7.93;;
2912;SDS011;1466;48.778;9.166;2024-03-06T04:58:07;20.10;;;8.87;;
2912;SDS011;1466;48.778;9.166;2024-03-06T05:00:33;22.13;;;9.03;;
2912;SDS011;1466;48.778;9.166;2024-03-06T05:02:59;29.53;;;8.57;;
2912;SDS011;1466;48.778;9.166;2024-03-06T05:05:25;17.37;;;7.77;;
2912;SDS011;1466;48.778;9.166;2024-03-06T05:07:50;16.10;;;8.47;;
2912;SDS011;1466;48.778;9.166;2024-03-06T05:10:16;16.23;;;7.97;;
2912;SDS011;1466;48.778;9.166;2024-03-06T05:12:42;20.60;;;8.57;;
2912;SDS011;1466;48.778;9.166;2024-03-06T05:15:08;22.80;;;9.03;;
2912;SDS011;1466;48.778;9.166;2024-03-06T05:17:34;22.38;;;9.40;;
2912;SDS011;1466;48.778;9.166;2024-03-06T05:20:00;39.70;;;11.07;;
2912;SDS011;1466;48.778;9.166;2024-03-06T05:22:26;16.90;;;8.70;;
2912;SDS011;1466;48.778;9.166;2024-03-06T05:24:51;15.87;;;8.17;;
2912;SDS011;1466;48.778;9.166;2024-03-06T05:27:21;22.13;;;9.32;;
2912;SDS011;1466;48.778;9.166;2024-03-06T05:29:46;24.40;;;9.43;;
2912;SDS011;1466;48.778;9.166;2024-03-06T05:32:12;21.83;;;8.07;;
2912;SDS011;1466;48.778;9.166;2024-03-06T05:34:37;16.93;;;8.00;;
2912;SDS011;1466;48.778;9.166;2024-03-06T05:37:03;24.80;;;9.83;;
2912;SDS011;1466;48.778;9.166;2024-03-06T05:39:30;21.67;;;8.38;;
2912;SDS011;1466;48.778;9.166;2024-03-06T05:42:00;20.40;;;8.73;;
2912;SDS011;1466;48.778;9.166;2024-03-06T05:44:32;25.20;;;9.90;;
2912;SDS011;1466;48.778;9.166;2024-03-06T05:46:58;22.23;;;9.05;;
2912;SDS011;1466;48.778;9.166;2024-03-06T05:49:25;18.05;;;8.57;;
2912;SDS011;1466;48.778;9.166;2024-03-06T05:51:51;30.60;;;10.50;;
2912;SDS011;1466;48.778;9.166;2024-03-06T05:54:17;21.40;;;9.17;;
2912;SDS011;1466;48.778;9.166;2024-03-06T05:56:44;24.90;;;10.20;;
2912;SDS011;1466;48.778;9.166;2024-03-06T05:59:10;31.50;;;10.50;;
2912;SDS011;1466;48.778;9.166;2024-03-06T06:01:35;24.10;;;10.13;;
2912;SDS011;1466;48.778;9.166;2024-03-06T06:04:01;29.80;;;10.17;;
2912;SDS011;1466;48.778;9.166;2024-03-06T06:06:27;20.30;;;9.47;;
2912;SDS011;1466;48.778;9.166;2024-03-06T06:08:53;30.10;;;10.50;;
2912;SDS011;1466;48.778;9.166;2024-03-06T06:11:18;19.30;;;10.40;;
2912;SDS011;1466;48.778;9.166;2024-03-06T06:13:44;22.47;;;10.70;;
2912;SDS011;1466;48.778;9.166;2024-03-06T06:16:10;35.03;;;11.37;;
2912;SDS011;1466;48.778;9.166;2024-03-06T06:18:36;28.40;;;10.50;;
2912;SDS011;1466;48.778;9.166;2024-03-06T06:21:01;20.27;;;8.93;;
2912;SDS011;1466;48.778;9.166;2024-03-06T06:23:29;22.42;;;9.70;;
2912;SDS011;1466;48.778;9.166;2024-03-06T06:25:54;28.23;;;9.70;;
2912;SDS011;1466;48.778;9.166;2024-03-06T06:28:21;23.70;;;10.35;;
2912;SDS011;1466;48.778;9.166;2024-03-06T06:30:47;25.75;;;10.57;;
2912;SDS011;1466;48.778;9.166;2024-03-06T06:33:13;39.27;;;12.33;;
2912;SDS011;1466;48.778;9.166;2024-03-06T06:35:39;46.73;;;12.90;;
2912;SDS011;1466;48.778;9.166;2024-03-06T06:38:04;35.03;;;12.27;;
2912;SDS011;1466;48.778;9.166;2024-03-06T06:40:30;27.67;;;9.97;;
2912;SDS011;1466;48.778;9.166;2024-03-06T06:42:56;29.00;;;11.30;;
2912;SDS011;1466;48.778;9.166;2024-03-06T06:45:22;25.47;;;10.53;;
2912;SDS011;1466;48.778;9.166;2024-03-06T06:47:47;27.30;;;10.90;;
2912;SDS011;1466;48.778;9.166;2024-03-06T06:50:14;28.02;;;10.50;;
2912;SDS011;1466;48.778;9.166;2024-03-06T06:52:43;28.92;;;11.70;;
2912;SDS011;1466;48.778;9.166;2024-03-06T06:55:09;23.35;;;10.65;;
2912;SDS011;1466;48.778;9.166;2024-03-06T06:57:36;31.17;;;11.45;;
2912;SDS011;1466;48.778;9.166;2024-03-06T07:00:02;33.38;;;11.55;;
2912;SDS011;1466;48.778;9.166;2024-03-06T07:02:36;25.90;;;10.88;;
2912;SDS011;1466;48.778;9.166;2024-03-06T07:05:02;33.13;;;12.02;;
2912;SDS011;1466;48.778;9.166;2024-03-06T07:07:29;21.38;;;10.20;;
2912;SDS011;1466;48.778;9.166;2024-03-06T07:09:55;27.00;;;11.60;;
2912;SDS011;1466;48.778;9.166;2024-03-06T07:12:20;26.93;;;11.37;;
2912;SDS011;1466;48.778;9.166;2024-03-06T07:14:47;25.90;;;10.88;;
2912;SDS011;1466;48.778;9.166;2024-03-06T07:17:12;27.30;;;10.83;;
2912;SDS011;1466;48.778;9.166;2024-03-06T07:19:38;27.70;;;11.03;;
2912;SDS011;1466;48.778;9.166;2024-03-06T07:22:04;22.67;;;10.20;;
2912;SDS011;1466;48.778;9.166;2024-03-06T07:24:30;22.13;;;10.80;;
2912;SDS011;1466;48.778;9.166;2024-03-06T07:26:55;24.10;;;10.90;;
2912;SDS011;1466;48.778;9.166;2024-03-06T07:29:21;25.10;;;11.70;;
2912;SDS011;1466;48.778;9.166;2024-03-06T07:31:46;32.70;;;11.27;;
2912;SDS011;1466;48.778;9.166;2024-03-06T07:34:12;30.63;;;11.17;;
2912;SDS011;1466;48.778;9.166;2024-03-06T07:36:39;22.52;;;10.48;;
2912;SDS011;1466;48.778;9.166;2024-03-06T07:39:06;20.52;;;9.98;;
2912;SDS011;1466;48.778;9.166;2024-03-06T07:41:32;32.90;;;11.23;;
2912;SDS011;1466;48.778;9.166;2024-03-06T07:44:01;27.40;;;11.23;;
2912;SDS011;1466;48.778;9.166;2024-03-06T07:46:27;19.48;;;9.88;;
2912;SDS011;1466;48.778;9.166;2024-03-06T07:48:53;27.73;;;11.87;;
2912;SDS011;1466;48.778;9.166;2024-03-06T07:51:18;22.53;;;11.13;;
2912;SDS011;1466;48.778;9.166;2024-03-06T07:53:44;33.03;;;12.00;;
2912;SDS011;1466;48.778;9.166;2024-03-06T07:56:10;29.83;;;12.80;;
2912;SDS011;1466;48.778;9.166;2024-03-06T07:58:38;26.10;;;11.63;;
2912;SDS011;1466;48.778;9.166;2024-03-06T08:01:04;27.37;;;11.83;;
2912;SDS011;1466;48.778;9.166;2024-03-06T08:03:32;28.20;;;11.45;;
2912;SDS011;1466;48.778;9.166;2024-03-06T08:05:58;29.35;;;10.90;;
2912;SDS011;1466;48.778;9.166;2024-03-06T08:08:25;24.25;;;10.60;;
2912;SDS011;1466;48.778;9.166;2024-03-06T08:10:50;27.77;;;12.10;;
2912;SDS011;1466;48.778;9.166;2024-03-06T08:13:16;22.03;;;11.03;;
2912;SDS011;1466;48.778;9.166;2024-03-06T08:15:44;22.45;;;10.25;;
2912;SDS011;1466;48.778;9.166;2024-03-06T08:18:12;31.40;;;11.87;;
2912;SDS011;1466;48.778;9.166;2024-03-06T08:20:39;24.45;;;11.25;;
2912;SDS011;1466;48.778;9.166;2024-03-06T08:23:05;26.13;;;10.70;;
2912;SDS011;1466;48.778;9.166;2024-03-06T08:25:30;25.93;;;10.43;;
2912;SDS011;1466;48.778;9.166;2024-03-06T08:27:57;24.30;;;9.32;;
2912;SDS011;1466;48.778;9.166;2024-03-06T08:30:24;25.58;;;10.38;;
2912;SDS011;1466;48.778;9.166;2024-03-06T08:32:50;24.27;;;10.37;;
2912;SDS011;1466;48.778;9.166;2024-03-06T08:35:18;26.40;;;10.63;;
2912;SDS011;1466;48.778;9.166;2024-03-06T08:37:46;27.33;;;9.40;;
2912;SDS011;1466;48.778;9.166;2024-03-06T08:40:11;35.23;;;11.57;;
2912;SDS011;1466;48.778;9.166;2024-03-06T08:42:40;26.20;;;10.35;;
2912;SDS011;1466;48.778;9.166;2024-03-06T08:45:07;22.10;;;10.75;;
2912;SDS011;1466;48.778;9.166;2024-03-06T08:47:33;28.07;;;10.07;;
2912;SDS011;1466;48.778;9.166;2024-03-06T08:49:59;20.52;;;9.95;;
2912;SDS011;1466;48.778;9.166;2024-03-06T08:52:27;24.63;;;11.50;;
2912;SDS011;1466;48.778;9.166;2024-03-06T08:54:53;29.73;;;10.02;;
2912;SDS011;1466;48.778;9.166;2024-03-06T08:57:19;20.73;;;9.13;;
2912;SDS011;1466;48.778;9.166;2024-03-06T08:59:46;21.02;;;9.68;;
2912;SDS011;1466;48.778;9.166;2024-03-06T09:02:12;22.80;;;9.97;;
2912;SDS011;1466;48.778;9.166;2024-03-06T09:04:43;25.27;;;11.20;;
2912;SDS011;1466;48.778;9.166;2024-03-06T09:07:09;19.38;;;10.38;;
2912;SDS011;1466;48.778;9.166;2024-03-06T09:09:36;27.52;;;11.18;;
2912;SDS011;1466;48.778;9.166;2024-03-06T09:12:02;34.28;;;11.63;;
2912;SDS011;1466;48.778;9.166;2024-03-06T09:14:34;20.85;;;10.20;;
2912;SDS011;1466;48.778;9.166;2024-03-06T09:17:00;22.88;;;9.75;;
2912;SDS011;1466;48.778;9.166;2024-03-06T09:19:26;19.60;;;9.90;;
2912;SDS011;1466;48.778;9.166;2024-03-06T09:21:52;23.70;;;9.80;;
2912;SDS011;1466;48.778;9.166;2024-03-06T09:24:22;20.52;;;10.35;;
2912;SDS011;1466;48.778;9.166;2024-03-06T09:26:48;23.25;;;10.70;;
2912;SDS011;1466;48.778;9.166;2024-03-06T09:29:15;18.17;;;8.85;;
2912;SDS011;1466;48.778;9.166;2024-03-06T09:31:41;25.55;;;10.65;;
2912;SDS011;1466;48.778;9.166;2024-03-06T09:34:07;14.20;;;8.18;;
2912;SDS011;1466;48.778;9.166;2024-03-06T09:36:36;19.15;;;9.35;;
2912;SDS011;1466;48.778;9.166;2024-03-06T09:39:02;22.30;;;9.40;;
2912;SDS011;1466;48.778;9.166;2024-03-06T09:41:29;20.08;;;10.13;;
2912;SDS011;1466;48.778;9.166;2024-03-06T09:43:55;18.53;;;10.00;;
2912;SDS011;1466;48.778;9.166;2024-03-06T09:46:21;19.90;;;10.70;;
2912;SDS011;1466;48.778;9.166;2024-03-06T09:48:47;21.27;;;11.20;;
2912;SDS011;1466;48.778;9.166;2024-03-06T09:51:16;21.58;;;11.48;;
2912;SDS011;1466;48.778;9.166;2024-03-06T09:53:42;32.47;;;12.55;;
2912;SDS011;1466;48.778;9.166;2024-03-06T09:56:08;32.30;;;11.90;;
2912;SDS011;1466;48.778;9.166;2024-03-06T09:58:35;26.47;;;12.90;;
2912;SDS011;1466;48.778;9.166;2024-03-06T10:01:01;21.85;;;11.20;;
2912;SDS011;1466;48.778;9.166;2024-03-06T10:03:32;24.88;;;13.23;;
2912;SDS011;1466;48.778;9.166;2024-03-06T10:05:58;34.13;;;12.93;;
2912;SDS011;1466;48.778;9.166;2024-03-06T10:08:24;23.95;;;11.85;;
2912;SDS011;1466;48.778;9.166;2024-03-06T10:10:51;36.28;;;13.40;;
2912;SDS011;1466;48.778;9.166;2024-03-06T10:13:17;24.23;;;14.60;;
2912;SDS011;1466;48.778;9.166;2024-03-06T10:15:59;26.35;;;12.63;;
2912;SDS011;1466;48.778;9.166;2024-03-06T10:18:30;23.77;;;12.82;;
2912;SDS011;1466;48.778;9.166;2024-03-06T10:20:57;29.33;;;13.85;;
2912;SDS011;1466;48.778;9.166;2024-03-06T10:23:23;28.85;;;14.27;;
2912;SDS011;1466;48.778;9.166;2024-03-06T10:25:49;26.63;;;12.77;;
2912;SDS011;1466;48.778;9.166;2024-03-06T10:28:17;31.38;;;15.32;;
2912;SDS011;1466;48.778;9.166;2024-03-06T10:30:44;31.75;;;14.65;;
2912;SDS011;1466;48.778;9.166;2024-03-06T10:33:13;32.28;;;13.65;;
2912;SDS011;1466;48.778;9.166;2024-03-06T10:35:41;20.23;;;12.50;;
2912;SDS011;1466;48.778;9.166;2024-03-06T10:38:07;29.08;;;14.00;;
2912;SDS011;1466;48.778;9.166;2024-03-06T10:40:34;28.75;;;13.50;;
2912;SDS011;1466;48.778;9.166;2024-03-06T10:43:01;22.67;;;13.20;;
2912;SDS011;1466;48.778;9.166;2024-03-06T10:45:46;30.15;;;14.80;;
2912;SDS011;1466;48.778;9.166;2024-03-06T10:48:19;27.55;;;15.65;;
2912;SDS011;1466;48.778;9.166;2024-03-06T10:50:48;26.95;;;15.43;;
2912;SDS011;1466;48.778;9.166;2024-03-06T10:53:17;34.00;;;16.80;;
2912;SDS011;1466;48.778;9.166;2024-03-06T10:55:44;35.03;;;17.90;;
2912;SDS011;1466;48.778;9.166;2024-03-06T10:58:10;35.33;;;15.95;;
2912;SDS011;1466;48.778;9.166;2024-03-06T11:00:48;33.17;;;16.55;;
2912;SDS011;1466;48.778;9.166;2024-03-06T11:03:15;35.10;;;17.00;;
2912;SDS011;1466;48.778;9.166;2024-03-06T11:05:41;29.73;;;16.05;;
2912;SDS011;1466;48.778;9.166;2024-03-06T11:08:09;32.22;;;15.73;;
2912;SDS011;1466;48.778;9.166;2024-03-06T11:10:37;46.88;;;21.17;;
2912;SDS011;1466;48.778;9.166;2024-03-06T11:13:03;38.42;;;16.73;;
2912;SDS011;1466;48.778;9.166;2024-03-06T11:15:50;41.42;;;20.33;;
2912;SDS011;1466;48.778;9.166;2024-03-06T11:23:31;34.65;;;16.65;;
2912;SDS011;1466;48.778;9.166;2024-03-06T11:26:04;41.50;;;19.98;;
2912;SDS011;1466;48.778;9.166;2024-03-06T11:28:32;42.30;;;21.50;;
2912;SDS011;1466;48.778;9.166;2024-03-06T11:31:24;48.47;;;20.92;;
2912;SDS011;1466;48.778;9.166;2024-03-06T11:33:52;38.60;;;19.33;;
2912;SDS011;1466;48.778;9.166;2024-03-06T11:38:56;41.80;;;21.15;;
2912;SDS011;1466;48.778;9.166;2024-03-06T11:41:29;47.13;;;25.52;;
2912;SDS011;1466;48.778;9.166;2024-03-06T11:43:56;42.08;;;20.52;;
2912;SDS011;1466;48.778;9.166;2024-03-06T11:49:27;50.47;;;19.45;;
2912;SDS011;1466;48.778;9.166;2024-03-06T11:51:56;51.40;;;24.05;;
2912;SDS011;1466;48.778;9.166;2024-03-06T11:54:23;47.28;;;21.95;;
2912;SDS011;1466;48.778;9.166;2024-03-06T11:56:52;44.78;;;20.90;;
2912;SDS011;1466;48.778;9.166;2024-03-06T11:59:26;53.78;;;23.17;;
2912;SDS011;1466;48.778;9.166;2024-03-06T12:01:53;48.33;;;23.45;;
2912;SDS011;1466;48.778;9.166;2024-03-06T12:04:21;46.50;;;20.45;;
2912;SDS011;1466;48.778;9.166;2024-03-06T12:06:47;46.70;;;23.00;;
2912;SDS011;1466;48.778;9.166;2024-03-06T12:09:13;44.58;;;21.02;;
2912;SDS011;1466;48.778;9.166;2024-03-06T12:11:40;61.67;;;26.35;;
2912;SDS011;1466;48.778;9.166;2024-03-06T12:14:08;51.00;;;21.92;;
2912;SDS011;1466;48.778;9.166;2024-03-06T12:16:43;48.97;;;21.95;;
2912;SDS011;1466;48.778;9.166;2024-03-06T12:19:09;59.22;;;22.30;;
2912;SDS011;1466;48.778;9.166;2024-03-06T12:21:35;48.63;;;23.93;;
2912;SDS011;1466;48.778;9.166;2024-03-06T12:26:29;44.65;;;21.58;;
2912;SDS011;1466;48.778;9.166;2024-03-06T12:29:03;54.53;;;23.23;;
2912;SDS011;1466;48.778;9.166;2024-03-06T12:31:33;45.40;;;22.65;;
2912;SDS011;1466;48.778;9.166;2024-03-06T12:34:00;38.55;;;20.05;;
2912;SDS011;1466;48.778;9.166;2024-03-06T12:36:28;47.20;;;21.23;;
2912;SDS011;1466;48.778;9.166;2024-03-06T12:39:00;52.00;;;23.02;;
2912;SDS011;1466;48.778;9.166;2024-03-06T12:41:27;49.58;;;23.42;;
2912;SDS011;1466;48.778;9.166;2024-03-06T12:43:53;61.70;;;25.27;;
2912;SDS011;1466;48.778;9.166;2024-03-06T12:46:20;44.03;;;21.98;;
2912;SDS011;1466;48.778;9.166;2024-03-06T12:48:47;53.03;;;22.80;;
2912;SDS011;1466;48.778;9.166;2024-03-06T12:51:12;46.50;;;22.20;;
2912;SDS011;1466;48.778;9.166;2024-03-06T12:53:38;48.43;;;22.63;;
2912;SDS011;1466;48.778;9.166;2024-03-06T12:56:05;50.50;;;22.95;;
2912;SDS011;1466;48.778;9.166;2024-03-06T12:58:31;50.17;;;21.17;;
2912;SDS011;1466;48.778;9.166;2024-03-06T13:00:57;54.00;;;23.07;;
2912;SDS011;1466;48.778;9.166;2024-03-06T13:03:23;36.45;;;19.73;;
2912;SDS011;1466;48.778;9.166;2024-03-06T13:05:48;49.60;;;21.00;;
2912;SDS011;1466;48.778;9.166;2024-03-06T13:08:15;50.65;;;22.70;;
2912;SDS011;1466;48.778;9.166;2024-03-06T13:10:41;50.67;;;21.45;;
2912;SDS011;1466;48.778;9.166;2024-03-06T13:13:07;56.38;;;25.20;;
2912;SDS011;1466;48.778;9.166;2024-03-06T13:15:33;45.27;;;23.60;;
2912;SDS011;1466;48.778;9.166;2024-03-06T13:18:05;52.90;;;21.73;;
2912;SDS011;1466;48.778;9.166;2024-03-06T13:20:31;44.67;;;21.77;;
2912;SDS011;1466;48.778;9.166;2024-03-06T13:22:57;44.00;;;20.35;;
2912;SDS011;1466;48.778;9.166;2024-03-06T13:25:23;47.35;;;20.55;;
2912;SDS011;1466;48.778;9.166;2024-03-06T13:27:50;43.80;;;21.93;;
2912;SDS011;1466;48.778;9.166;2024-03-06T13:30:17;49.58;;;23.15;;
2912;SDS011;1466;48.778;9.166;2024-03-06T13:32:43;48.42;;;21.80;;
2912;SDS011;1466;48.778;9.166;2024-03-06T13:35:10;51.42;;;23.80;;
2912;SDS011;1466;48.778;9.166;2024-03-06T13:37:43;44.00;;;20.42;;
2912;SDS011;1466;48.778;9.166;2024-03-06T13:40:09;43.47;;;19.27;;
2912;SDS011;1466;48.778;9.166;2024-03-06T13:42:38;42.28;;;19.60;;
2912;SDS011;1466;48.778;9.166;2024-03-06T13:45:04;42.00;;;20.83;;
2912;SDS011;1466;48.778;9.166;2024-03-06T13:47:30;40.47;;;21.13;;
2912;SDS011;1466;48.778;9.166;2024-03-06T13:49:56;49.37;;;21.87;;
2912;SDS011;1466;48.778;9.166;2024-03-06T13:52:22;44.73;;;20.50;;
2912;SDS011;1466;48.778;9.166;2024-03-06T13:54:48;53.53;;;22.70;;
2912;SDS011;1466;48.778;9.166;2024-03-06T13:57:14;46.60;;;21.00;;
2912;SDS011;1466;48.778;9.166;2024-03-06T13:59:40;52.65;;;21.77;;
2912;SDS011;1466;48.778;9.166;2024-03-06T14:02:07;44.78;;;23.30;;
2912;SDS011;1466;48.778;9.166;2024-03-06T14:04:33;51.17;;;23.88;;
2912;SDS011;1466;48.778;9.166;2024-03-06T14:07:00;34.70;;;18.00;;
2912;SDS011;1466;48.778;9.166;2024-03-06T14:09:26;53.70;;;23.20;;
2912;SDS011;1466;48.778;9.166;2024-03-06T14:11:52;42.60;;;19.95;;
2912;SDS011;1466;48.778;9.166;2024-03-06T14:14:18;46.03;;;22.10;;
2912;SDS011;1466;48.778;9.166;2024-03-06T14:16:44;47.22;;;22.20;;
2912;SDS011;1466;48.778;9.166;2024-03-06T14:19:10;53.83;;;22.80;;
2912;SDS011;1466;48.778;9.166;2024-03-06T14:21:36;46.83;;;21.47;;
2912;SDS011;1466;48.778;9.166;2024-03-06T14:24:03;41.88;;;21.45;;
2912;SDS011;1466;48.778;9.166;2024-03-06T14:26:30;46.65;;;22.40;;
2912;SDS011;1466;48.778;9.166;2024-03-06T14:28:57;45.40;;;21.40;;
2912;SDS011;1466;48.778;9.166;2024-03-06T14:31:23;44.13;;;21.35;;
2912;SDS011;1466;48.778;9.166;2024-03-06T14:33:49;58.23;;;24.03;;
2912;SDS011;1466;48.778;9.166;2024-03-06T14:36:15;47.58;;;21.95;;
2912;SDS011;1466;48.778;9.166;2024-03-06T14:38:41;45.83;;;21.02;;
2912;SDS011;1466;48.778;9.166;2024-03-06T14:41:09;54.50;;;23.23;;
2912;SDS011;1466;48.778;9.166;2024-03-06T14:43:35;47.43;;;20.67;;
2912;SDS011;1466;48.778;9.166;2024-03-06T14:46:03;57.03;;;24.52;;
2912;SDS011;1466;48.778;9.166;2024-03-06T14:48:33;54.45;;;24.15;;
2912;SDS011;1466;48.778;9.166;2024-03-06T14:51:02;45.93;;;21.00;;
2912;SDS011;1466;48.778;9.166;2024-03-06T14:53:28;59.75;;;26.30;;
2912;SDS011;1466;48.778;9.166;2024-03-06T14:55:54;55.47;;;24.10;;
2912;SDS011;1466;48.778;9.166;2024-03-06T14:58:23;60.50;;;24.13;;
2912;SDS011;1466;48.778;9.166;2024-03-06T15:00:49;44.75;;;21.48;;
2912;SDS011;1466;48.778;9.166;2024-03-06T15:03:15;35.80;;;19.30;;